createdAt,value
2023-05-10T00:00:16.393Z,85.8725
2023-05-10T00:01:17.560Z,85.7185
2023-05-10T00:02:19.022Z,85.5753
2023-05-10T00:03:20.435Z,85.7185
2023-05-10T00:04:21.912Z,85.7657
2023-05-10T00:05:23.276Z,85.8011
2023-05-10T00:06:25.295Z,85.8598
2023-05-10T00:07:26.094Z,85.6472
2023-05-10T00:08:27.552Z,85.5103
2023-05-10T00:09:28.925Z,85.6199
2023-05-10T00:10:30.366Z,85.9022
2023-05-10T00:11:31.824Z,85.9024
2023-05-10T00:12:33.201Z,85.4568
2023-05-10T00:13:34.690Z,85.4840
2023-05-10T00:14:36.034Z,85.6739
2023-05-10T00:15:37.517Z,86.0942
2023-05-10T00:16:38.972Z,86.2946
2023-05-10T00:17:40.421Z,86.0544
2023-05-10T00:18:41.631Z,85.4837
2023-05-10T00:19:43.176Z,85.3567
2023-05-10T00:20:44.589Z,85.6482
2023-05-10T00:21:46.079Z,86.0850
2023-05-10T00:22:47.486Z,86.3045
2023-05-10T00:23:48.943Z,86.1214
2023-05-10T00:24:50.321Z,85.4146
2023-05-10T00:25:52.373Z,85.3310
2023-05-10T00:26:53.140Z,85.5919
2023-05-10T00:27:54.613Z,85.9850
2023-05-10T00:28:55.940Z,86.3286
2023-05-10T00:29:57.418Z,86.3990
2023-05-10T00:30:58.849Z,86.2762
2023-05-10T00:32:00.347Z,85.4291
2023-05-10T00:33:01.744Z,85.2654
2023-05-10T00:34:03.197Z,85.5518
2023-05-10T00:35:04.600Z,86.0233
2023-05-10T00:36:05.966Z,86.2846
2023-05-10T00:37:07.385Z,86.4566
2023-05-10T00:38:08.821Z,86.1653
2023-05-10T00:39:10.163Z,85.3962
2023-05-10T00:40:11.637Z,85.3547
2023-05-10T00:41:13.821Z,85.7434
2023-05-10T00:42:14.539Z,86.1073
2023-05-10T00:43:15.873Z,86.3416
2023-05-10T00:44:17.345Z,86.4496
2023-05-10T00:45:18.862Z,86.0100
2023-05-10T00:46:20.349Z,85.2786
2023-05-10T00:47:21.700Z,85.3293
2023-05-10T00:48:23.195Z,85.6506
2023-05-10T00:49:24.548Z,86.1545
2023-05-10T00:50:25.893Z,86.3841
2023-05-10T00:51:27.378Z,86.3974
2023-05-10T00:52:28.848Z,86.0611
2023-05-10T00:53:30.190Z,85.3571
2023-05-10T00:54:31.635Z,85.3834
2023-05-10T00:55:33.033Z,85.8017
2023-05-10T00:56:34.526Z,86.2160
2023-05-10T00:57:35.887Z,86.3775
2023-05-10T00:58:37.200Z,86.4429
2023-05-10T00:59:38.711Z,86.1904
2023-05-10T01:00:40.150Z,85.3772
2023-05-10T01:01:41.601Z,85.5347
2023-05-10T01:02:43.071Z,85.8049
2023-05-10T01:03:44.399Z,86.1032
2023-05-10T01:04:45.851Z,86.2834
2023-05-10T01:05:47.242Z,86.3926
2023-05-10T01:06:48.785Z,86.4220
2023-05-10T01:07:50.124Z,85.4999
2023-05-10T01:08:51.555Z,85.0247
2023-05-10T01:09:52.917Z,85.3638
2023-05-10T01:10:54.373Z,85.8905
2023-05-10T01:11:55.815Z,86.2107
2023-05-10T01:12:57.340Z,86.3566
2023-05-10T01:13:58.704Z,86.3998
2023-05-10T01:15:00.162Z,86.0143
2023-05-10T01:16:01.504Z,85.3047
2023-05-10T01:17:02.913Z,85.3828
2023-05-10T01:18:04.317Z,85.8090
2023-05-10T01:19:05.763Z,86.2359
2023-05-10T01:20:07.144Z,86.4248
2023-05-10T01:21:08.592Z,86.4648
2023-05-10T01:22:09.993Z,86.2136
2023-05-10T01:23:12.366Z,85.2217
2023-05-10T01:24:12.837Z,85.2757
2023-05-10T01:25:14.292Z,85.6618
2023-05-10T01:26:15.720Z,86.1146
2023-05-10T01:27:17.165Z,86.3227
2023-05-10T01:28:18.543Z,86.4260
2023-05-10T01:29:19.976Z,86.5063
2023-05-10T01:30:22.187Z,86.0146
2023-05-10T01:31:22.901Z,85.0051
2023-05-10T01:32:24.281Z,85.3834
2023-05-10T01:33:25.600Z,85.8243
2023-05-10T01:34:27.062Z,86.1504
2023-05-10T01:35:28.546Z,86.3297
2023-05-10T01:36:29.962Z,86.3986
2023-05-10T01:37:31.395Z,86.3719
2023-05-10T01:38:32.762Z,85.5416
2023-05-10T01:39:34.224Z,85.1449
2023-05-10T01:40:35.598Z,85.5069
2023-05-10T01:41:37.037Z,85.9553
2023-05-10T01:42:38.477Z,86.2166
2023-05-10T01:43:39.944Z,86.3361
2023-05-10T01:44:41.290Z,86.3478
2023-05-10T01:45:42.751Z,86.4537
2023-05-10T01:46:44.157Z,85.7078
2023-05-10T01:47:45.681Z,84.9297
2023-05-10T01:48:47.043Z,85.3273
2023-05-10T01:49:48.491Z,85.7510
2023-05-10T01:50:49.755Z,86.2130
2023-05-10T01:51:51.375Z,86.3101
2023-05-10T01:52:53.327Z,86.3693
2023-05-10T01:53:54.140Z,86.4856
2023-05-10T01:54:55.503Z,86.0988
2023-05-10T01:55:57.023Z,85.2973
2023-05-10T01:56:58.436Z,85.5497
2023-05-10T01:57:59.760Z,85.7020
2023-05-10T01:59:01.152Z,86.0852
2023-05-10T02:00:02.678Z,86.3082
2023-05-10T02:01:04.065Z,86.4347
2023-05-10T02:02:05.525Z,86.4940
2023-05-10T02:03:07.026Z,85.8907
2023-05-10T02:04:08.468Z,84.9608
2023-05-10T02:05:09.686Z,85.1730
2023-05-10T02:06:11.284Z,85.6188
2023-05-10T02:07:12.584Z,86.1055
2023-05-10T02:08:14.062Z,86.3176
2023-05-10T02:09:15.484Z,86.4207
2023-05-10T02:10:17.098Z,86.5069
2023-05-10T02:11:18.192Z,86.3271
2023-05-10T02:12:19.726Z,85.2363
2023-05-10T02:13:21.251Z,85.2329
2023-05-10T02:14:22.577Z,85.4984
2023-05-10T02:15:24.028Z,86.1247
2023-05-10T02:16:25.452Z,86.3487
2023-05-10T02:17:26.836Z,86.4353
2023-05-10T02:18:28.269Z,86.5312
2023-05-10T02:19:29.782Z,86.2266
2023-05-10T02:20:31.136Z,85.2649
2023-05-10T02:21:32.555Z,85.5010
2023-05-10T02:22:33.886Z,85.8118
2023-05-10T02:23:35.381Z,86.2954
2023-05-10T02:24:36.780Z,86.4093
2023-05-10T02:25:38.092Z,86.4268
2023-05-10T02:26:39.616Z,86.5081
2023-05-10T02:27:41.115Z,86.3524
2023-05-10T02:28:42.428Z,85.1888
2023-05-10T02:29:43.936Z,85.2283
2023-05-10T02:30:45.294Z,85.7089
2023-05-10T02:31:46.741Z,86.1018
2023-05-10T02:32:48.139Z,86.3262
2023-05-10T02:33:49.582Z,86.4199
2023-05-10T02:34:50.920Z,86.4889
2023-05-10T02:35:52.407Z,86.5260
2023-05-10T02:36:53.810Z,86.5027
2023-05-10T02:37:55.279Z,85.5372
2023-05-10T02:38:56.628Z,85.4194
2023-05-10T02:39:58.130Z,85.8621
2023-05-10T02:40:59.480Z,86.2975
2023-05-10T02:42:00.830Z,86.4403
2023-05-10T02:43:02.405Z,86.5028
2023-05-10T02:44:03.750Z,86.5692
2023-05-10T02:45:05.203Z,86.5798
2023-05-10T02:46:06.631Z,86.1596
2023-05-10T02:47:07.972Z,85.1337
2023-05-10T02:48:09.538Z,85.1707
2023-05-10T02:49:10.792Z,85.7416
2023-05-10T02:50:12.307Z,86.2173
2023-05-10T02:51:14.389Z,86.3922
2023-05-10T02:52:15.157Z,86.4997
2023-05-10T02:53:16.514Z,86.5522
2023-05-10T02:54:17.888Z,86.5692
2023-05-10T02:55:19.416Z,86.2292
2023-05-10T02:56:20.916Z,85.2727
2023-05-10T02:57:22.276Z,85.4174
2023-05-10T02:58:23.737Z,85.8928
2023-05-10T02:59:25.074Z,86.3228
2023-05-10T03:00:26.638Z,86.4140
2023-05-10T03:01:27.990Z,86.4288
2023-05-10T03:02:29.346Z,86.4379
2023-05-10T03:03:30.706Z,86.5096
2023-05-10T03:04:32.294Z,86.4693
2023-05-10T03:05:33.649Z,85.5773
2023-05-10T03:06:35.027Z,85.2196
2023-05-10T03:07:36.424Z,85.7003
2023-05-10T03:08:37.963Z,86.1517
2023-05-10T03:09:39.282Z,86.3627
2023-05-10T03:10:40.648Z,86.4239
2023-05-10T03:11:42.128Z,86.4839
2023-05-10T03:12:43.595Z,86.4813
2023-05-10T03:13:44.934Z,86.5060
2023-05-10T03:14:46.388Z,85.7940
2023-05-10T03:15:48.389Z,85.4517
2023-05-10T03:16:49.346Z,85.7977
2023-05-10T03:17:50.727Z,86.2566
2023-05-10T03:18:52.157Z,86.4092
2023-05-10T03:19:53.438Z,86.4528
2023-05-10T03:20:54.988Z,86.5077
2023-05-10T03:21:56.377Z,86.5132
2023-05-10T03:22:57.817Z,85.8144
2023-05-10T03:23:59.178Z,85.0432
2023-05-10T03:25:00.555Z,85.4416
2023-05-10T03:26:02.070Z,85.9575
2023-05-10T03:27:03.519Z,86.2744
2023-05-10T03:28:04.925Z,86.4192
2023-05-10T03:29:06.322Z,86.4966
2023-05-10T03:30:07.715Z,86.5331
2023-05-10T03:31:09.139Z,86.5725
2023-05-10T03:32:10.658Z,86.0010
2023-05-10T03:33:12.068Z,85.0561
2023-05-10T03:34:13.388Z,85.4863
2023-05-10T03:35:14.858Z,86.0051
2023-05-10T03:36:16.235Z,86.3434
2023-05-10T03:37:17.813Z,86.4365
2023-05-10T03:38:19.177Z,86.4514
2023-05-10T03:39:20.581Z,86.5052
2023-05-10T03:40:21.930Z,86.5669
2023-05-10T03:41:23.435Z,86.0923
2023-05-10T03:42:24.812Z,85.4196
2023-05-10T03:43:26.243Z,85.5145
2023-05-10T03:44:27.628Z,86.0066
2023-05-10T03:45:28.938Z,86.3455
2023-05-10T03:46:30.492Z,86.4446
2023-05-10T03:47:31.976Z,86.4929
2023-05-10T03:48:33.326Z,86.5530
2023-05-10T03:49:34.780Z,86.2568
2023-05-10T03:50:36.134Z,85.3247
2023-05-10T03:51:37.567Z,85.4472
2023-05-10T03:52:39.936Z,85.9208
2023-05-10T03:53:40.378Z,86.3758
2023-05-10T03:54:41.844Z,86.5388
2023-05-10T03:55:43.272Z,86.6374
2023-05-10T03:56:44.671Z,86.6381
2023-05-10T03:57:46.161Z,86.4340
2023-05-10T03:58:47.525Z,85.3916
2023-05-10T03:59:48.941Z,85.2485
2023-05-10T04:00:50.326Z,85.8215
2023-05-10T04:01:51.814Z,86.1652
2023-05-10T04:02:53.314Z,86.4050
2023-05-10T04:03:54.750Z,86.5146
2023-05-10T04:04:56.005Z,86.5818
2023-05-10T04:05:57.532Z,86.3781
2023-05-10T04:06:58.910Z,85.3790
2023-05-10T04:08:00.402Z,85.4331
2023-05-10T04:09:02.375Z,85.8944
2023-05-10T04:10:03.214Z,86.3235
2023-05-10T04:11:04.492Z,86.4821
2023-05-10T04:12:06.491Z,86.5102
2023-05-10T04:13:07.699Z,86.5104
2023-05-10T04:14:08.994Z,86.2287
2023-05-10T04:15:10.283Z,85.1943
2023-05-10T04:16:11.823Z,85.2986
2023-05-10T04:17:13.169Z,85.8897
2023-05-10T04:18:14.621Z,86.2305
2023-05-10T04:19:16.028Z,86.4172
2023-05-10T04:20:17.625Z,86.5226
2023-05-10T04:21:18.825Z,86.5088
2023-05-10T04:22:20.294Z,86.4312
2023-05-10T04:23:21.765Z,85.5159
2023-05-10T04:24:23.155Z,85.1803
2023-05-10T04:25:24.588Z,85.5434
2023-05-10T04:26:25.923Z,86.1137
2023-05-10T04:27:27.372Z,86.3697
2023-05-10T04:28:28.773Z,86.4248
2023-05-10T04:29:30.201Z,86.4376
2023-05-10T04:30:31.676Z,86.3508
2023-05-10T04:31:33.133Z,85.3552
2023-05-10T04:32:35.040Z,85.1474
2023-05-10T04:33:35.925Z,85.4470
2023-05-10T04:34:37.382Z,86.0710
2023-05-10T04:35:38.850Z,86.3085
2023-05-10T04:36:40.224Z,86.3951
2023-05-10T04:37:41.673Z,86.4102
2023-05-10T04:38:43.025Z,86.4746
2023-05-10T04:39:45.459Z,85.8749
2023-05-10T04:40:45.899Z,85.2187
2023-05-10T04:41:47.327Z,85.5794
2023-05-10T04:42:48.745Z,86.0240
2023-05-10T04:43:50.178Z,86.3470
2023-05-10T04:44:51.586Z,86.4329
2023-05-10T04:45:53.036Z,86.4443
2023-05-10T04:46:54.511Z,86.3374
2023-05-10T04:47:56.001Z,85.3267
2023-05-10T04:48:57.334Z,85.2953
2023-05-10T04:49:58.826Z,85.7455
2023-05-10T04:51:00.142Z,86.2170
2023-05-10T04:52:01.671Z,86.3372
2023-05-10T04:53:03.071Z,86.3555
2023-05-10T04:54:06.626Z,86.4128
2023-05-10T04:55:06.907Z,85.9085
2023-05-10T04:56:07.266Z,85.0647
2023-05-10T04:57:08.670Z,85.3213
2023-05-10T04:58:10.128Z,85.7132
2023-05-10T04:59:11.583Z,86.1949
2023-05-10T05:00:12.999Z,86.3630
2023-05-10T05:01:14.383Z,86.3832
2023-05-10T05:02:15.890Z,86.1063
2023-05-10T05:03:17.266Z,85.1618
2023-05-10T05:04:18.618Z,85.2895
2023-05-10T05:05:20.068Z,85.5569
2023-05-10T05:06:21.526Z,86.0484
2023-05-10T05:07:22.845Z,86.2589
2023-05-10T05:08:24.385Z,86.3355
2023-05-10T05:09:25.728Z,86.3120
2023-05-10T05:10:27.134Z,85.4439
2023-05-10T05:11:29.465Z,84.9087
2023-05-10T05:12:30.034Z,85.2124
2023-05-10T05:13:31.458Z,85.6945
2023-05-10T05:14:32.849Z,86.0954
2023-05-10T05:15:34.265Z,86.2626
2023-05-10T05:16:35.865Z,86.3718
2023-05-10T05:17:37.219Z,85.9945
2023-05-10T05:18:38.584Z,85.1593
2023-05-10T05:19:39.990Z,85.1338
2023-05-10T05:20:42.557Z,85.4921
2023-05-10T05:21:42.867Z,85.9532
2023-05-10T05:22:44.298Z,86.2981
2023-05-10T05:23:45.678Z,86.3681
2023-05-10T05:24:47.198Z,85.5621
2023-05-10T05:25:48.525Z,84.9636
2023-05-10T05:26:50.057Z,85.0774
2023-05-10T05:27:51.423Z,85.3741
2023-05-10T05:28:52.767Z,85.9275
2023-05-10T05:29:54.239Z,86.1565
2023-05-10T05:30:55.859Z,86.2596
2023-05-10T05:31:57.237Z,85.5699
2023-05-10T05:32:58.541Z,84.7297
2023-05-10T05:33:59.956Z,84.9704
2023-05-10T05:35:01.449Z,85.2465
2023-05-10T05:36:02.876Z,85.7447
2023-05-10T05:37:04.252Z,86.0564
2023-05-10T05:38:05.653Z,86.2697
2023-05-10T05:39:06.924Z,86.0156
2023-05-10T05:40:08.373Z,85.0615
2023-05-10T05:41:09.937Z,85.0390
2023-05-10T05:42:11.409Z,85.2721
2023-05-10T05:43:13.230Z,85.7610
2023-05-10T05:44:14.071Z,86.0733
2023-05-10T05:45:15.896Z,86.2632
2023-05-10T05:46:17.033Z,85.6549
2023-05-10T05:47:18.462Z,84.8969
2023-05-10T05:48:19.802Z,85.0791
2023-05-10T05:49:21.264Z,85.3154
2023-05-10T05:50:22.649Z,85.7635
2023-05-10T05:51:24.142Z,86.0274
2023-05-10T05:52:25.602Z,86.2482
2023-05-10T05:53:26.905Z,85.9955
2023-05-10T05:54:28.330Z,85.0604
2023-05-10T05:55:29.687Z,84.8846
2023-05-10T05:56:31.251Z,85.2496
2023-05-10T05:57:32.668Z,85.7003
2023-05-10T05:58:34.189Z,86.0880
2023-05-10T05:59:35.480Z,86.2927
2023-05-10T06:00:36.880Z,86.2602
2023-05-10T06:01:38.371Z,85.7235
2023-05-10T06:02:39.940Z,85.7623
2023-05-10T06:03:41.208Z,86.1064
2023-05-10T06:04:44.689Z,86.4953
2023-05-10T06:05:44.110Z,86.5308
2023-05-10T06:06:45.405Z,86.4791
2023-05-10T06:07:46.852Z,86.5361
2023-05-10T06:08:48.219Z,86.6976
2023-05-10T06:09:49.686Z,86.1908
2023-05-10T06:10:51.096Z,85.1525
2023-05-10T06:11:52.543Z,83.7594
2023-05-10T06:12:53.928Z,81.2941
2023-05-10T06:13:55.253Z,79.1856
2023-05-10T06:14:56.731Z,77.9283
2023-05-10T06:15:58.144Z,77.9006
2023-05-10T06:16:59.626Z,78.0715
2023-05-10T06:18:01.046Z,78.0225
2023-05-10T06:19:02.333Z,77.6155
2023-05-10T06:20:03.856Z,77.1917
2023-05-10T06:21:05.186Z,75.8998
2023-05-10T06:22:06.719Z,75.1169
2023-05-10T06:23:08.043Z,74.8960
2023-05-10T06:24:09.655Z,74.5345
2023-05-10T06:25:10.879Z,73.7522
2023-05-10T06:26:12.309Z,72.7030
2023-05-10T06:27:13.812Z,71.6129
2023-05-10T06:28:15.234Z,71.5029
2023-05-10T06:29:16.609Z,71.7543
2023-05-10T06:30:18.222Z,71.7033
2023-05-10T06:31:19.518Z,71.4905
2023-05-10T06:32:20.920Z,70.7627
2023-05-10T06:33:22.311Z,68.2763
2023-05-10T06:34:23.755Z,68.2724
2023-05-10T06:35:25.159Z,69.0857
2023-05-10T06:36:26.689Z,69.3244
2023-05-10T06:37:28.147Z,69.2472
2023-05-10T06:38:29.641Z,69.0932
2023-05-10T06:39:30.878Z,67.8535
2023-05-10T06:40:32.847Z,66.5000
2023-05-10T06:41:33.689Z,67.5369
2023-05-10T06:42:35.311Z,68.5230
2023-05-10T06:43:36.631Z,68.8842
2023-05-10T06:44:37.922Z,68.7958
2023-05-10T06:45:39.346Z,66.7113
2023-05-10T06:46:40.772Z,66.2405
2023-05-10T06:47:42.255Z,67.4305
2023-05-10T06:48:43.718Z,68.2828
2023-05-10T06:49:45.009Z,68.6230
2023-05-10T06:50:46.534Z,67.0410
2023-05-10T06:51:47.913Z,66.0154
2023-05-10T06:52:50.214Z,67.2016
2023-05-10T06:53:51.142Z,68.1547
2023-05-10T06:54:52.216Z,68.3131
2023-05-10T06:55:53.586Z,66.2488
2023-05-10T06:56:55.057Z,65.5690
2023-05-10T06:57:56.494Z,66.8435
2023-05-10T06:58:57.916Z,67.8318
2023-05-10T06:59:59.286Z,67.9542
2023-05-10T07:01:00.804Z,65.9534
2023-05-10T07:02:02.180Z,65.4250
2023-05-10T07:03:03.644Z,66.7214
2023-05-10T07:04:04.960Z,67.6427
2023-05-10T07:05:06.474Z,66.9985
2023-05-10T07:06:11.356Z,64.8050
2023-05-10T07:07:09.323Z,64.9522
2023-05-10T07:08:10.747Z,66.3001
2023-05-10T07:09:12.213Z,67.3449
2023-05-10T07:10:13.531Z,66.1341
2023-05-10T07:11:14.998Z,63.8913
2023-05-10T07:12:16.729Z,64.8940
2023-05-10T07:13:17.915Z,66.3735
2023-05-10T07:14:19.287Z,67.1566
2023-05-10T07:15:20.763Z,65.1220
2023-05-10T07:16:22.058Z,63.6416
2023-05-10T07:17:23.593Z,65.1009
2023-05-10T07:18:24.926Z,66.4823
2023-05-10T07:19:26.388Z,67.2316
2023-05-10T07:20:27.814Z,64.9427
2023-05-10T07:21:29.293Z,64.3360
2023-05-10T07:22:30.596Z,66.2525
2023-05-10T07:23:32.123Z,67.8763
2023-05-10T07:24:33.456Z,69.0774
2023-05-10T07:25:34.932Z,68.5751
2023-05-10T07:26:36.404Z,66.5307
2023-05-10T07:27:37.743Z,67.4179
2023-05-10T07:28:39.300Z,68.8906
2023-05-10T07:29:40.615Z,70.1339
2023-05-10T07:30:42.089Z,71.1251
2023-05-10T07:31:43.433Z,71.0072
2023-05-10T07:32:44.896Z,68.8873
2023-05-10T07:33:46.283Z,69.2946
2023-05-10T07:34:47.732Z,70.5417
2023-05-10T07:35:49.138Z,71.6482
2023-05-10T07:36:50.571Z,72.5587
2023-05-10T07:37:51.997Z,73.3706
2023-05-10T07:38:53.433Z,72.7390
2023-05-10T07:39:54.922Z,70.7570
2023-05-10T07:40:56.314Z,71.2833
2023-05-10T07:41:57.589Z,72.4331
2023-05-10T07:42:59.162Z,73.5018
2023-05-10T07:44:00.589Z,74.3805
2023-05-10T07:45:02.032Z,75.1316
2023-05-10T07:46:03.501Z,75.5579
2023-05-10T07:47:04.803Z,73.8056
2023-05-10T07:48:06.387Z,72.8050
2023-05-10T07:49:07.585Z,73.8617
2023-05-10T07:50:09.217Z,74.8660
2023-05-10T07:51:10.630Z,75.7483
2023-05-10T07:52:12.051Z,76.3840
2023-05-10T07:53:13.424Z,76.9707
2023-05-10T07:54:14.887Z,76.5322
2023-05-10T07:55:16.533Z,74.2166
2023-05-10T07:56:17.741Z,74.3112
2023-05-10T07:57:19.013Z,75.2979
2023-05-10T07:58:20.498Z,76.1954
2023-05-10T07:59:21.980Z,76.8279
2023-05-10T08:00:23.470Z,77.3776
2023-05-10T08:01:24.819Z,77.8664
2023-05-10T08:02:26.407Z,77.7141
2023-05-10T08:03:27.759Z,75.6396
2023-05-10T08:04:29.372Z,75.4926
2023-05-10T08:05:30.535Z,76.3222
2023-05-10T08:06:32.062Z,77.2094
2023-05-10T08:07:33.399Z,77.6212
2023-05-10T08:08:34.796Z,77.9168
2023-05-10T08:09:36.447Z,78.3017
2023-05-10T08:10:37.708Z,76.9842
2023-05-10T08:11:39.092Z,75.1389
2023-05-10T08:12:40.622Z,75.9389
2023-05-10T08:13:41.825Z,76.6774
2023-05-10T08:14:43.706Z,77.4151
2023-05-10T08:15:44.798Z,77.7995
2023-05-10T08:16:46.244Z,78.0863
2023-05-10T08:17:47.595Z,76.6233
2023-05-10T08:18:49.118Z,74.4301
2023-05-10T08:19:50.416Z,75.0292
2023-05-10T08:20:51.821Z,75.8923
2023-05-10T08:21:53.357Z,76.7129
2023-05-10T08:22:54.823Z,77.3253
2023-05-10T08:23:56.245Z,77.6738
2023-05-10T08:24:57.669Z,77.7533
2023-05-10T08:25:59.034Z,75.4527
2023-05-10T08:27:00.496Z,74.6134
2023-05-10T08:28:01.876Z,75.6782
2023-05-10T08:29:03.291Z,76.5201
2023-05-10T08:30:04.726Z,77.2565
2023-05-10T08:31:06.289Z,77.7364
2023-05-10T08:32:07.623Z,78.0849
2023-05-10T08:33:08.985Z,77.3317
2023-05-10T08:34:10.417Z,75.1203
2023-05-10T08:35:11.841Z,75.4585
2023-05-10T08:36:13.355Z,76.3532
2023-05-10T08:37:14.792Z,77.0295
2023-05-10T08:38:16.098Z,77.5291
2023-05-10T08:39:29.383Z,77.9206
2023-05-10T08:40:19.071Z,77.8164
2023-05-10T08:41:20.440Z,75.5635
2023-05-10T08:42:22.185Z,74.6874
2023-05-10T08:43:23.225Z,75.7697
2023-05-10T08:44:24.689Z,76.7542
2023-05-10T08:45:26.196Z,77.3269
2023-05-10T08:46:27.715Z,77.8429
2023-05-10T08:47:29.053Z,78.2651
2023-05-10T08:48:30.726Z,78.5944
2023-05-10T08:49:32.011Z,76.5896
2023-05-10T08:50:33.432Z,75.3102
2023-05-10T08:51:34.835Z,76.0385
2023-05-10T08:52:36.446Z,77.1799
2023-05-10T08:53:37.695Z,77.8189
2023-05-10T08:54:39.080Z,78.2803
2023-05-10T08:55:40.321Z,78.6248
2023-05-10T08:56:42.055Z,79.0219
2023-05-10T08:57:43.373Z,77.8069
2023-05-10T08:58:44.722Z,75.9651
2023-05-10T08:59:46.221Z,76.6154
2023-05-10T09:00:48.158Z,77.5393
2023-05-10T09:01:49.124Z,78.2320
2023-05-10T09:02:50.689Z,78.7235
2023-05-10T09:03:51.811Z,79.1262
2023-05-10T09:04:53.354Z,79.3671
2023-05-10T09:05:54.729Z,79.2130
2023-05-10T09:06:56.194Z,76.7191
2023-05-10T09:07:57.533Z,76.5840
2023-05-10T09:08:59.291Z,77.1705
2023-05-10T09:10:00.372Z,78.0653
2023-05-10T09:11:01.761Z,78.3349
2023-05-10T09:12:03.305Z,78.5386
2023-05-10T09:13:04.840Z,78.6629
2023-05-10T09:14:06.045Z,76.6353
2023-05-10T09:15:07.460Z,75.2740
2023-05-10T09:16:20.439Z,76.2439
2023-05-10T09:17:10.503Z,76.9470
2023-05-10T09:18:11.857Z,77.5008
2023-05-10T09:19:13.385Z,77.9960
2023-05-10T09:20:14.494Z,78.2880
2023-05-10T09:21:16.217Z,77.3862
2023-05-10T09:22:17.456Z,75.1428
2023-05-10T09:23:18.761Z,75.7431
2023-05-10T09:24:20.348Z,76.7249
2023-05-10T09:25:21.793Z,77.3308
2023-05-10T09:26:23.058Z,77.8253
2023-05-10T09:27:24.776Z,78.1258
2023-05-10T09:28:26.133Z,78.0374
2023-05-10T09:29:27.615Z,76.5077
2023-05-10T09:30:28.786Z,75.2078
2023-05-10T09:31:30.589Z,76.0094
2023-05-10T09:32:31.779Z,77.0380
2023-05-10T09:33:33.402Z,77.5777
2023-05-10T09:34:34.531Z,78.1101
2023-05-10T09:35:35.848Z,78.1985
2023-05-10T09:36:37.707Z,78.1528
2023-05-10T09:37:38.679Z,76.4529
2023-05-10T09:38:40.405Z,75.6323
2023-05-10T09:39:41.631Z,76.2905
2023-05-10T09:40:43.038Z,77.0421
2023-05-10T09:41:44.532Z,77.6776
2023-05-10T09:42:46.231Z,78.0856
2023-05-10T09:43:47.525Z,78.2252
2023-05-10T09:44:49.109Z,77.4866
2023-05-10T09:45:50.174Z,75.6903
2023-05-10T09:46:51.746Z,76.0495
2023-05-10T09:47:53.214Z,77.0116
2023-05-10T09:48:54.503Z,77.5192
2023-05-10T09:49:55.864Z,77.7097
2023-05-10T09:50:57.395Z,78.0145
2023-05-10T09:51:58.822Z,77.4994
2023-05-10T09:53:00.195Z,75.6850
2023-05-10T09:54:01.683Z,75.6800
2023-05-10T09:55:02.993Z,76.6252
2023-05-10T09:56:04.514Z,77.3144
2023-05-10T09:57:05.931Z,77.8702
2023-05-10T09:58:07.360Z,78.5153
2023-05-10T09:59:08.895Z,78.6115
2023-05-10T10:00:10.143Z,76.2919
2023-05-10T10:01:12.015Z,75.2940
2023-05-10T10:02:13.186Z,76.0935
2023-05-10T10:03:14.457Z,76.9189
2023-05-10T10:04:15.916Z,77.5520
2023-05-10T10:05:17.717Z,78.1089
2023-05-10T10:06:26.802Z,78.5757
2023-05-10T10:07:20.180Z,77.0959
2023-05-10T10:08:22.334Z,75.2055
2023-05-10T10:09:23.210Z,75.6447
2023-05-10T10:10:24.336Z,77.0738
2023-05-10T10:11:25.782Z,77.6793
2023-05-10T10:12:27.338Z,78.2761
2023-05-10T10:13:28.900Z,78.3940
2023-05-10T10:14:30.250Z,78.4860
2023-05-10T10:15:31.555Z,77.0984
2023-05-10T10:16:33.023Z,76.0845
2023-05-10T10:17:34.394Z,76.9685
2023-05-10T10:18:35.781Z,77.5419
2023-05-10T10:19:37.604Z,77.9377
2023-05-10T10:20:38.587Z,78.3562
2023-05-10T10:21:40.161Z,78.6142
2023-05-10T10:22:41.494Z,77.3936
2023-05-10T10:23:43.074Z,76.2265
2023-05-10T10:24:44.508Z,76.6114
2023-05-10T10:25:45.814Z,77.3479
2023-05-10T10:26:47.262Z,77.9479
2023-05-10T10:27:48.604Z,77.9898
2023-05-10T10:28:50.323Z,78.1831
2023-05-10T10:29:51.511Z,77.0930
2023-05-10T10:30:53.041Z,76.1017
2023-05-10T10:31:54.297Z,76.3287
2023-05-10T10:32:55.699Z,77.1166
2023-05-10T10:33:57.176Z,77.6539
2023-05-10T10:34:58.738Z,77.9590
2023-05-10T10:35:59.968Z,78.1038
2023-05-10T10:37:01.445Z,77.1189
2023-05-10T10:38:02.859Z,75.5444
2023-05-10T10:39:04.607Z,75.5753
2023-05-10T10:40:05.714Z,76.4786
2023-05-10T10:41:07.176Z,77.0746
2023-05-10T10:42:08.454Z,77.3997
2023-05-10T10:43:10.154Z,77.7050
2023-05-10T10:44:11.735Z,77.1266
2023-05-10T10:45:12.903Z,75.4336
2023-05-10T10:46:14.284Z,75.3734
2023-05-10T10:47:15.625Z,76.5389
2023-05-10T10:48:17.092Z,77.1170
2023-05-10T10:49:18.611Z,77.4231
2023-05-10T10:50:20.035Z,77.4207
2023-05-10T10:51:21.342Z,76.7044
2023-05-10T10:52:22.788Z,75.0113
2023-05-10T10:53:24.281Z,75.2080
2023-05-10T10:54:25.716Z,76.1184
2023-05-10T10:55:27.197Z,76.7673
2023-05-10T10:56:28.480Z,77.2333
2023-05-10T10:57:29.910Z,77.1108
2023-05-10T10:58:31.257Z,76.3319
2023-05-10T10:59:32.734Z,74.5644
2023-05-10T11:00:34.220Z,74.7711
2023-05-10T11:01:35.700Z,75.7561
2023-05-10T11:02:37.105Z,76.4342
2023-05-10T11:03:38.400Z,76.9510
2023-05-10T11:04:40.122Z,76.9100
2023-05-10T11:05:41.527Z,75.0788
2023-05-10T11:06:42.617Z,73.3310
2023-05-10T11:07:44.413Z,73.5619
2023-05-10T11:08:45.746Z,74.7143
2023-05-10T11:09:48.166Z,75.5257
2023-05-10T11:10:48.642Z,76.0142
2023-05-10T11:11:50.230Z,76.2367
2023-05-10T11:12:51.142Z,74.9729
2023-05-10T11:13:52.663Z,73.2339
2023-05-10T11:14:54.038Z,73.2787
2023-05-10T11:15:55.528Z,74.2414
2023-05-10T11:16:56.924Z,74.8122
2023-05-10T11:17:58.340Z,75.3383
2023-05-10T11:18:59.771Z,75.1653
2023-05-10T11:20:01.170Z,72.7855
2023-05-10T11:21:02.664Z,72.3203
2023-05-10T11:22:04.069Z,73.4043
2023-05-10T11:23:05.432Z,74.3017
2023-05-10T11:24:07.103Z,74.9795
2023-05-10T11:25:08.500Z,74.5458
2023-05-10T11:26:09.582Z,72.1413
2023-05-10T11:27:11.069Z,72.3190
2023-05-10T11:28:12.466Z,73.3971
2023-05-10T11:29:13.976Z,74.3294
2023-05-10T11:30:15.877Z,74.9244
2023-05-10T11:31:16.945Z,75.2256
2023-05-10T11:32:18.161Z,73.3521
2023-05-10T11:33:19.610Z,72.1270
2023-05-10T11:34:20.992Z,73.1438
2023-05-10T11:35:22.446Z,74.2242
2023-05-10T11:36:23.871Z,75.0931
2023-05-10T11:37:25.305Z,75.9675
2023-05-10T11:38:26.735Z,75.4591
2023-05-10T11:39:28.106Z,73.0976
2023-05-10T11:40:29.548Z,73.1346
2023-05-10T11:41:31.093Z,74.2648
2023-05-10T11:42:32.340Z,75.2055
2023-05-10T11:43:33.984Z,75.7658
2023-05-10T11:44:35.294Z,76.4864
2023-05-10T11:45:36.633Z,75.9821
2023-05-10T11:46:38.446Z,73.4407
2023-05-10T11:47:40.794Z,73.6183
2023-05-10T11:48:40.970Z,74.8520
2023-05-10T11:49:42.316Z,75.6202
2023-05-10T11:50:43.884Z,76.1797
2023-05-10T11:51:45.198Z,76.5573
2023-05-10T11:52:46.941Z,75.6413
2023-05-10T11:53:48.048Z,73.4030
2023-05-10T11:54:49.474Z,73.4666
2023-05-10T11:55:50.931Z,74.5928
2023-05-10T11:56:52.398Z,75.5456
2023-05-10T11:57:54.115Z,76.1464
2023-05-10T11:58:55.142Z,76.0807
2023-05-10T11:59:56.659Z,74.7246
2023-05-10T12:00:57.995Z,72.4072
2023-05-10T12:01:59.826Z,72.9049
2023-05-10T12:03:01.180Z,73.7794
2023-05-10T12:04:02.493Z,74.6446
2023-05-10T12:05:04.721Z,75.3856
2023-05-10T12:06:05.098Z,74.7503
2023-05-10T12:07:06.653Z,72.2241
2023-05-10T12:08:08.001Z,72.0751
2023-05-10T12:09:09.539Z,73.3147
2023-05-10T12:10:10.802Z,74.3350
2023-05-10T12:11:12.315Z,75.2092
2023-05-10T12:12:13.724Z,75.7134
2023-05-10T12:13:15.200Z,75.1804
2023-05-10T12:14:16.514Z,72.3922
2023-05-10T12:15:17.974Z,72.4585
2023-05-10T12:16:19.633Z,73.6669
2023-05-10T12:17:20.795Z,74.6620
2023-05-10T12:18:22.207Z,75.5581
2023-05-10T12:19:23.620Z,76.0441
2023-05-10T12:20:25.030Z,75.8351
2023-05-10T12:21:26.499Z,72.7683
2023-05-10T12:22:27.972Z,72.5717